createdAt,value
2019-02-02T00:02:11.531Z,15.77
2019-02-02T00:04:50.484Z,14.57
2019-02-02T00:08:19.278Z,14.37
2019-02-02T00:10:49.230Z,15.23
2019-02-02T00:13:19.337Z,15.50
2019-02-02T00:16:28.874Z,16.00
2019-02-02T00:19:55.770Z,13.90
2019-02-02T00:22:30.963Z,16.83
2019-02-02T00:25:09.838Z,17.50
2019-02-02T00:27:41.548Z,15.17
2019-02-02T00:30:14.202Z,12.33
2019-02-02T00:32:44.314Z,46.60
2019-02-02T00:35:41.559Z,13.60
2019-02-02T00:38:14.576Z,21.40
2019-02-02T00:40:45.564Z,13.87
2019-02-02T00:43:21.739Z,16.40
2019-02-02T00:45:51.715Z,13.70
2019-02-02T00:48:21.675Z,16.47
2019-02-02T00:51:00.833Z,14.83
2019-02-02T00:53:40.014Z,14.90
2019-02-02T00:56:27.990Z,14.90
2019-02-02T00:59:03.686Z,14.53
2019-02-02T01:01:38.777Z,16.20
2019-02-02T01:04:11.765Z,17.13
2019-02-02T01:06:41.887Z,16.73
2019-02-02T01:09:16.626Z,17.90
2019-02-02T01:11:49.302Z,26.20
2019-02-02T01:14:25.205Z,17.87
2019-02-02T01:16:55.151Z,33.33
2019-02-02T01:19:25.337Z,33.37
2019-02-02T01:21:55.403Z,18.00
2019-02-02T01:24:25.311Z,16.43
2019-02-02T01:26:55.180Z,25.30
2019-02-02T01:29:37.143Z,20.60
2019-02-02T01:32:16.243Z,30.53
2019-02-02T01:34:52.142Z,27.67
2019-02-02T01:37:22.082Z,18.13
2019-02-02T01:39:52.007Z,13.33
2019-02-02T01:42:21.869Z,14.10
2019-02-02T01:44:52.042Z,17.00
2019-02-02T01:47:27.762Z,18.77
2019-02-02T01:50:13.042Z,12.80
2019-02-02T01:53:01.304Z,13.33
2019-02-02T01:55:31.388Z,14.80
2019-02-02T01:58:19.419Z,14.13
2019-02-02T02:00:49.984Z,13.60
2019-02-02T02:03:19.828Z,13.23
2019-02-02T02:06:13.646Z,12.60
2019-02-02T02:08:43.504Z,11.37
2019-02-02T02:14:07.143Z,12.57
2019-02-02T02:17:01.182Z,11.20
2019-02-02T02:19:31.151Z,11.20
2019-02-02T02:22:01.003Z,11.50
2019-02-02T02:24:30.914Z,11.50
2019-02-02T02:27:10.263Z,11.83
2019-02-02T02:29:41.702Z,12.07
2019-02-02T02:32:36.069Z,10.83
2019-02-02T02:35:07.206Z,11.17
2019-02-02T02:37:38.515Z,10.70
2019-02-02T02:40:24.814Z,11.00
2019-02-02T02:42:54.867Z,11.10
2019-02-02T02:45:36.521Z,11.67
2019-02-02T02:48:06.525Z,11.90
2019-02-02T02:50:36.409Z,12.53
2019-02-02T02:53:06.409Z,11.90
2019-02-02T02:55:36.270Z,13.40
2019-02-02T02:58:12.183Z,13.13
2019-02-02T03:00:42.134Z,12.60
2019-02-02T03:03:30.335Z,12.80
2019-02-02T03:06:00.241Z,13.23
2019-02-02T03:08:48.102Z,11.57
2019-02-02T03:14:41.664Z,12.50
2019-02-02T03:17:11.641Z,11.77
2019-02-02T03:19:41.523Z,11.77
2019-02-02T03:22:14.591Z,11.80
2019-02-02T03:24:44.581Z,11.53
2019-02-02T03:27:15.922Z,11.80
2019-02-02T03:29:45.794Z,11.27
2019-02-02T03:32:15.626Z,10.97
2019-02-02T03:34:45.534Z,11.07
2019-02-02T03:37:15.403Z,10.93
2019-02-02T03:39:45.336Z,11.03
2019-02-02T03:42:15.190Z,11.13
2019-02-02T03:44:45.121Z,11.53
2019-02-02T03:47:26.990Z,13.50
2019-02-02T03:50:03.038Z,13.27
2019-02-02T03:52:32.902Z,14.40
2019-02-02T03:55:11.401Z,12.87
2019-02-02T03:57:51.911Z,13.23
2019-02-02T04:00:23.362Z,13.20
2019-02-02T04:05:58.689Z,12.53
2019-02-02T04:08:28.675Z,12.43
2019-02-02T04:10:58.703Z,12.10
2019-02-02T04:13:28.571Z,11.77
2019-02-02T04:15:58.456Z,11.33
2019-02-02T04:18:28.327Z,11.60
2019-02-02T04:20:58.552Z,10.90
2019-02-02T04:23:28.451Z,11.03
2019-02-02T04:25:59.138Z,10.43
2019-02-02T04:28:29.048Z,9.27
2019-02-02T04:34:04.776Z,9.60
2019-02-02T04:36:37.388Z,8.57
2019-02-02T04:39:20.522Z,8.70
2019-02-02T04:41:50.404Z,7.73
2019-02-02T04:44:20.423Z,5.90
2019-02-02T04:46:50.326Z,4.60
2019-02-02T04:49:20.229Z,3.97
2019-02-02T04:52:26.494Z,4.57
2019-02-02T04:55:02.237Z,3.90
2019-02-02T04:57:44.137Z,3.37
2019-02-02T05:00:20.052Z,3.10
2019-02-02T05:02:49.919Z,3.10
2019-02-02T05:05:20.144Z,2.90
2019-02-02T05:07:50.128Z,2.60
2019-02-02T05:10:41.343Z,2.60
2019-02-02T05:13:11.190Z,2.57
2019-02-02T05:15:41.095Z,2.60
2019-02-02T05:18:35.128Z,2.53
2019-02-02T05:21:24.234Z,2.83
2019-02-02T05:23:54.114Z,1.70
2019-02-02T05:26:23.970Z,1.70
2019-02-02T05:29:02.939Z,2.00
2019-02-02T05:31:35.662Z,1.80
2019-02-02T05:34:13.163Z,1.90
2019-02-02T05:39:33.594Z,3.10
2019-02-02T05:42:03.474Z,5.40
2019-02-02T05:44:39.395Z,6.93
2019-02-02T05:47:23.766Z,9.53
2019-02-02T05:49:40.938Z,10.03
2019-02-02T05:52:33.704Z,9.60
2019-02-02T05:54:42.330Z,9.97
2019-02-02T05:57:30.262Z,10.43
2019-02-02T06:00:00.209Z,10.67
2019-02-02T06:02:30.195Z,9.70
2019-02-02T06:05:00.169Z,8.87
2019-02-02T06:08:03.226Z,9.10
2019-02-02T06:10:33.149Z,9.03
2019-02-02T06:13:03.022Z,9.07
2019-02-02T06:18:35.716Z,7.70
2019-02-02T06:21:05.706Z,8.23
2019-02-02T06:23:35.615Z,7.97
2019-02-02T06:26:05.783Z,7.70
2019-02-02T06:28:38.402Z,7.70
2019-02-02T06:31:08.409Z,7.80
2019-02-02T06:33:53.769Z,8.00
2019-02-02T06:36:25.274Z,7.13
2019-02-02T06:38:55.157Z,8.03
2019-02-02T06:44:46.187Z,7.83
2019-02-02T06:47:22.003Z,8.37
2019-02-02T06:49:51.902Z,8.27
2019-02-02T06:52:27.497Z,8.87
2019-02-02T06:55:15.213Z,9.23
2019-02-02T06:58:03.896Z,8.63
2019-02-02T07:00:34.374Z,8.80
2019-02-02T07:03:07.069Z,8.80
2019-02-02T07:05:37.005Z,8.73
2019-02-02T07:08:15.725Z,9.60
2019-02-02T07:11:03.944Z,8.57
2019-02-02T07:13:45.635Z,8.50
2019-02-02T07:16:06.977Z,8.63
2019-02-02T07:25:29.230Z,7.07
2019-02-02T07:27:59.235Z,8.27
2019-02-02T07:30:51.715Z,8.13
2019-02-02T07:33:01.998Z,8.67
2019-02-02T07:38:21.119Z,8.03
2019-02-02T07:40:51.035Z,7.70
2019-02-02T07:43:20.920Z,7.87
2019-02-02T07:45:50.825Z,8.53
2019-02-02T07:48:33.136Z,8.60
2019-02-02T07:51:03.072Z,8.90
2019-02-02T07:53:51.125Z,9.27
2019-02-02T07:56:21.034Z,9.77
2019-02-02T07:58:51.055Z,9.97
2019-02-02T08:01:21.119Z,9.87
2019-02-02T08:03:57.183Z,11.13
2019-02-02T08:06:35.711Z,9.03
2019-02-02T08:09:08.405Z,7.17
2019-02-02T08:11:38.323Z,6.37
2019-02-02T08:14:11.285Z,6.07
2019-02-02T08:16:39.894Z,4.83
2019-02-02T08:19:30.954Z,4.87
2019-02-02T08:22:00.992Z,4.67
2019-02-02T08:24:30.982Z,4.40
2019-02-02T08:27:49.636Z,4.73
2019-02-02T08:30:21.907Z,7.03
2019-02-02T08:32:54.779Z,9.37
2019-02-02T08:35:24.930Z,9.33
2019-02-02T08:37:54.926Z,9.70
2019-02-02T08:40:34.155Z,9.10
2019-02-02T08:43:06.943Z,9.10
2019-02-02T08:45:49.068Z,8.90
2019-02-02T08:48:20.564Z,8.20
2019-02-02T08:50:50.686Z,8.23
2019-02-02T08:56:18.615Z,9.77
2019-02-02T09:01:54.216Z,9.13
2019-02-02T09:04:24.235Z,14.17
2019-02-02T09:07:54.548Z,9.70
2019-02-02T09:10:26.437Z,9.23
2019-02-02T09:12:57.165Z,8.87
2019-02-02T09:15:44.649Z,9.00
2019-02-02T09:18:14.617Z,8.97
2019-02-02T09:20:44.527Z,9.27
2019-02-02T09:23:14.434Z,8.63
2019-02-02T09:26:36.173Z,8.47
2019-02-02T09:29:11.960Z,9.03
2019-02-02T09:31:41.971Z,9.00
2019-02-02T09:34:12.026Z,9.53
2019-02-02T09:36:42.095Z,9.97
2019-02-02T09:39:12.035Z,8.90
2019-02-02T09:41:42.006Z,8.47
2019-02-02T09:44:11.841Z,8.07
2019-02-02T09:47:04.810Z,8.77
2019-02-02T09:49:14.883Z,9.83
2019-02-02T09:51:59.879Z,9.10
2019-02-02T09:54:51.013Z,8.67
2019-02-02T09:57:42.534Z,8.00
2019-02-02T10:00:18.222Z,7.33
2019-02-02T10:03:00.428Z,8.10
2019-02-02T10:05:31.446Z,7.93
2019-02-02T10:08:07.493Z,7.30
2019-02-02T10:10:37.384Z,7.13
2019-02-02T10:13:07.693Z,7.50
2019-02-02T10:15:56.106Z,7.77
2019-02-02T10:18:53.572Z,8.33
2019-02-02T10:21:29.651Z,7.67
2019-02-02T10:24:18.224Z,8.53
2019-02-02T10:27:18.881Z,7.80
2019-02-02T10:29:48.822Z,7.80
2019-02-02T10:32:18.782Z,8.33
2019-02-02T10:34:54.966Z,8.20
2019-02-02T10:38:21.664Z,8.17
2019-02-02T10:41:12.589Z,9.63
2019-02-02T10:43:58.606Z,10.03
2019-02-02T10:46:46.730Z,10.90
2019-02-02T10:49:28.818Z,10.50
2019-02-02T10:52:10.868Z,11.97
2019-02-02T10:54:46.572Z,12.13
2019-02-02T10:57:16.579Z,11.33
2019-02-02T10:59:48.957Z,11.10
2019-02-02T11:02:18.140Z,10.83
2019-02-02T11:04:53.437Z,10.43
2019-02-02T11:10:24.978Z,10.90
2019-02-02T11:12:55.141Z,10.40
2019-02-02T11:15:41.282Z,10.37
2019-02-02T11:18:12.299Z,10.47
2019-02-02T11:20:42.481Z,10.50
2019-02-02T11:23:18.220Z,9.70
2019-02-02T11:25:48.277Z,10.97
2019-02-02T11:28:18.558Z,9.43
2019-02-02T11:30:48.705Z,9.00
2019-02-02T11:36:21.637Z,8.38
2019-02-02T11:39:04.213Z,8.63
2019-02-02T11:44:31.693Z,6.50
2019-02-02T11:47:01.846Z,6.90
2019-02-02T11:50:11.372Z,6.90
2019-02-02T11:52:43.298Z,6.83
2019-02-02T11:55:15.149Z,6.37
2019-02-02T12:00:37.988Z,5.42
2019-02-02T12:03:08.349Z,5.30
2019-02-02T12:04:16.398Z,6.75
2019-02-02T12:05:38.477Z,6.80
2019-02-02T12:08:14.860Z,7.15
2019-02-02T12:10:48.252Z,6.80
2019-02-02T12:13:18.346Z,7.72
2019-02-02T12:16:06.689Z,6.62
2019-02-02T12:18:36.660Z,6.30
2019-02-02T12:21:06.761Z,7.05
2019-02-02T12:23:43.623Z,6.80
2019-02-02T12:26:13.727Z,6.25
2019-02-02T12:28:43.766Z,6.87
2019-02-02T12:31:13.745Z,7.42
2019-02-02T12:34:07.924Z,8.78
2019-02-02T12:36:53.456Z,8.05
2019-02-02T12:39:23.626Z,9.13
2019-02-02T12:44:50.376Z,7.37
2019-02-02T12:47:20.993Z,7.50
2019-02-02T12:49:51.335Z,7.80
2019-02-02T12:52:42.696Z,8.07
2019-02-02T12:55:12.879Z,8.37
2019-02-02T13:00:44.380Z,10.23
2019-02-02T13:03:14.610Z,9.63
2019-02-02T13:05:44.620Z,8.67
2019-02-02T13:08:14.653Z,10.33
2019-02-02T13:10:44.708Z,9.77
2019-02-02T13:13:14.732Z,10.17
2019-02-02T13:15:44.806Z,10.47
2019-02-02T13:18:17.646Z,10.80
2019-02-02T13:23:52.573Z,11.00
2019-02-02T13:27:02.203Z,10.80
2019-02-02T13:29:32.192Z,11.03
2019-02-02T13:32:08.148Z,11.87
2019-02-02T13:34:38.272Z,10.93
2019-02-02T13:37:32.920Z,10.77
2019-02-02T13:40:14.812Z,11.80
2019-02-02T13:42:44.990Z,10.53
2019-02-02T13:45:17.379Z,11.57
2019-02-02T13:47:47.720Z,11.33
2019-02-02T13:50:20.190Z,12.27
2019-02-02T13:52:51.775Z,11.33
2019-02-02T13:55:24.768Z,11.77
2019-02-02T13:57:55.061Z,12.10
2019-02-02T14:00:38.806Z,11.77
2019-02-02T14:03:15.446Z,11.93
2019-02-02T14:05:46.159Z,11.93
2019-02-02T14:08:19.294Z,13.20
2019-02-02T14:10:58.548Z,13.47
2019-02-02T14:13:31.532Z,14.97
2019-02-02T14:16:10.915Z,14.87
2019-02-02T14:19:23.646Z,15.50
2019-02-02T14:21:54.115Z,17.57
2019-02-02T14:24:24.388Z,17.57
2019-02-02T14:27:06.624Z,18.63
2019-02-02T14:29:37.075Z,18.33
2019-02-02T14:32:49.688Z,18.00
2019-02-02T14:35:21.687Z,17.17
2019-02-02T14:38:00.869Z,15.57
2019-02-02T14:40:40.263Z,15.47
2019-02-02T14:43:10.704Z,14.00
2019-02-02T14:45:57.219Z,14.50
2019-02-02T14:48:45.240Z,13.20
2019-02-02T14:51:15.551Z,14.33
2019-02-02T14:53:54.665Z,14.70
2019-02-02T14:56:34.060Z,14.30
2019-02-02T14:59:16.592Z,15.13
2019-02-02T15:01:53.280Z,14.77
2019-02-02T15:04:23.682Z,16.57
2019-02-02T15:06:54.280Z,15.40
2019-02-02T15:09:33.649Z,15.17
2019-02-02T15:12:03.664Z,17.07
2019-02-02T15:14:49.129Z,16.40
2019-02-02T15:20:46.382Z,17.40
2019-02-02T15:23:22.792Z,18.33
2019-02-02T15:28:51.919Z,19.60
2019-02-02T15:34:15.816Z,19.93
2019-02-02T15:36:46.012Z,19.27
2019-02-02T15:39:28.034Z,18.97
2019-02-02T15:41:58.325Z,18.37
2019-02-02T15:44:28.859Z,17.33
2019-02-02T15:46:59.051Z,17.97
2019-02-02T15:49:30.869Z,18.17
2019-02-02T15:52:01.288Z,19.10
2019-02-02T15:54:31.464Z,19.47
2019-02-02T15:57:10.774Z,18.60
2019-02-02T15:59:59.561Z,18.97
2019-02-02T16:02:30.086Z,17.00
2019-02-02T16:08:11.477Z,17.33
2019-02-02T16:10:41.876Z,14.77
2019-02-02T16:13:18.806Z,14.37
2019-02-02T16:15:49.137Z,13.93
2019-02-02T16:18:49.589Z,14.20
2019-02-02T16:21:20.928Z,13.30
2019-02-02T16:24:06.503Z,11.50
2019-02-02T16:26:36.804Z,10.87
2019-02-02T16:29:25.706Z,10.40
2019-02-02T16:31:55.996Z,10.87
2019-02-02T16:35:02.838Z,11.80
2019-02-02T16:37:45.337Z,11.73
2019-02-02T16:40:17.886Z,11.73
2019-02-02T16:43:00.647Z,11.27
2019-02-02T16:45:32.716Z,11.60
2019-02-02T16:48:02.855Z,11.63
2019-02-02T16:50:33.185Z,11.70
2019-02-02T16:53:31.841Z,11.90
2019-02-02T16:56:02.163Z,12.10
2019-02-02T16:58:59.885Z,11.30
2019-02-02T17:01:30.307Z,11.57
2019-02-02T17:04:21.532Z,11.83
2019-02-02T17:07:14.782Z,12.50
2019-02-02T17:09:45.107Z,11.13
2019-02-02T17:12:39.927Z,12.33
2019-02-02T17:15:15.825Z,11.90
2019-02-02T17:20:50.682Z,11.37
2019-02-02T17:23:21.032Z,11.77
2019-02-02T17:26:01.855Z,12.07
2019-02-02T17:28:38.048Z,11.80
2019-02-02T17:31:13.393Z,12.43
2019-02-02T17:34:04.933Z,12.00
2019-02-02T17:36:35.138Z,12.03
2019-02-02T17:39:24.900Z,11.60
2019-02-02T17:41:55.306Z,11.83
2019-02-02T17:44:29.720Z,11.60
2019-02-02T17:47:08.841Z,12.33
2019-02-02T17:49:54.090Z,12.50
2019-02-02T17:52:24.375Z,13.27
2019-02-02T17:55:05.760Z,14.03
2019-02-02T17:57:37.256Z,13.27
2019-02-02T18:00:37.111Z,13.00
2019-02-02T18:03:11.329Z,13.93
2019-02-02T18:05:41.757Z,13.67
2019-02-02T18:08:12.047Z,16.50
2019-02-02T18:10:46.516Z,18.53
2019-02-02T18:13:16.859Z,18.27
2019-02-02T18:15:58.962Z,20.63
2019-02-02T18:18:31.574Z,21.13
2019-02-02T18:21:01.867Z,22.03
2019-02-02T18:23:57.712Z,21.97
2019-02-02T18:26:28.916Z,21.97
2019-02-02T18:29:01.702Z,22.03
2019-02-02T18:31:32.641Z,21.63
2019-02-02T18:34:03.467Z,23.93
2019-02-02T18:36:34.883Z,22.80
2019-02-02T18:39:08.986Z,24.93
2019-02-02T18:42:39.626Z,22.50
2019-02-02T18:45:47.800Z,22.30
2019-02-02T18:48:20.556Z,22.97
2019-02-02T18:50:52.115Z,23.87
2019-02-02T18:56:40.546Z,24.50
2019-02-02T18:59:10.811Z,24.17
2019-02-02T19:04:48.160Z,24.70
2019-02-02T19:07:18.872Z,23.83
2019-02-02T19:09:50.523Z,19.03
2019-02-02T19:12:21.692Z,23.90
2019-02-02T19:14:51.989Z,22.77
2019-02-02T19:17:23.739Z,22.33
2019-02-02T19:19:54.123Z,24.60
2019-02-02T19:22:46.937Z,18.60
2019-02-02T19:25:35.574Z,21.17
2019-02-02T19:28:07.831Z,21.70
2019-02-02T19:30:39.580Z,24.73
2019-02-02T19:33:09.924Z,27.00
2019-02-02T19:35:46.165Z,26.30
2019-02-02T19:38:22.274Z,25.20
2019-02-02T19:40:56.687Z,27.13
2019-02-02T19:43:26.871Z,29.40
2019-02-02T19:48:52.970Z,28.40
2019-02-02T19:51:33.709Z,29.83
2019-02-02T19:54:07.552Z,31.57
2019-02-02T19:56:37.531Z,29.03
2019-02-02T19:59:35.346Z,28.17
2019-02-02T20:02:40.360Z,33.63
2019-02-02T20:05:10.617Z,34.97
2019-02-02T20:08:05.152Z,33.77
2019-02-02T20:11:04.069Z,34.57
2019-02-02T20:13:34.738Z,34.40
2019-02-02T20:16:06.549Z,35.67
2019-02-02T20:19:04.565Z,35.77
2019-02-02T20:21:34.918Z,35.83
2019-02-02T20:24:39.238Z,36.53
2019-02-02T20:27:12.282Z,35.23
2019-02-02T20:29:45.307Z,37.00
2019-02-02T20:32:15.758Z,38.10
2019-02-02T20:35:14.032Z,37.20
2019-02-02T20:37:44.498Z,37.90
2019-02-02T20:43:32.593Z,37.97
2019-02-02T20:46:03.120Z,37.87
2019-02-02T20:48:33.532Z,38.53
2019-02-02T20:51:04.170Z,40.47
2019-02-02T20:56:58.683Z,37.80
2019-02-02T20:59:40.932Z,38.13
2019-02-02T21:05:14.245Z,42.80
2019-02-02T21:07:44.522Z,47.93
2019-02-02T21:10:19.525Z,47.40
2019-02-02T21:16:11.885Z,45.77
2019-02-02T21:18:45.187Z,47.83
2019-02-02T21:21:27.480Z,46.23
2019-02-02T21:24:19.175Z,47.70
2019-02-02T21:26:49.326Z,47.87
2019-02-02T21:29:23.473Z,46.07
2019-02-02T21:31:56.472Z,50.97
2019-02-02T21:34:41.631Z,52.37
2019-02-02T21:38:00.992Z,53.50
2019-02-02T21:40:52.280Z,53.73
2019-02-02T21:43:35.071Z,55.03
2019-02-02T21:46:05.750Z,54.47
2019-02-02T21:48:47.792Z,54.13
2019-02-02T21:51:18.309Z,55.00
2019-02-02T21:53:48.162Z,54.43
2019-02-02T21:56:18.473Z,57.80
2019-02-02T21:58:51.177Z,55.33
2019-02-02T22:01:24.254Z,58.60
2019-02-02T22:03:53.163Z,56.67
2019-02-02T22:06:26.232Z,56.43
2019-02-02T22:08:57.073Z,58.30
2019-02-02T22:11:27.153Z,55.90
2019-02-02T22:17:27.812Z,56.90
2019-02-02T22:19:57.792Z,58.60
2019-02-02T22:22:47.086Z,60.53
2019-02-02T22:25:19.007Z,61.63
2019-02-02T22:27:49.034Z,69.30
2019-02-02T22:30:30.872Z,72.77
2019-02-02T22:33:00.876Z,71.40
2019-02-02T22:35:36.691Z,70.07
2019-02-02T22:38:06.674Z,72.37
2019-02-02T22:40:45.952Z,76.83
2019-02-02T22:43:15.958Z,71.50
2019-02-02T22:45:49.845Z,71.90
2019-02-02T22:48:19.826Z,73.13
2019-02-02T22:50:49.720Z,69.50
2019-02-02T22:53:38.114Z,66.27
2019-02-02T22:56:08.099Z,67.80
2019-02-02T22:58:38.192Z,65.10
2019-02-02T23:01:29.392Z,69.20
2019-02-02T23:04:17.191Z,70.30
2019-02-02T23:07:13.116Z,69.97
2019-02-02T23:10:23.952Z,71.20
2019-02-02T23:13:34.551Z,76.13
2019-02-02T23:16:31.713Z,72.57
2019-02-02T23:19:05.238Z,72.63
2019-02-02T23:21:35.234Z,72.17
2019-02-02T23:24:05.474Z,73.37
2019-02-02T23:26:35.320Z,76.13
2019-02-02T23:29:08.312Z,71.53
2019-02-02T23:31:38.198Z,75.67
2019-02-02T23:34:08.176Z,75.40
2019-02-02T23:36:38.077Z,75.80
2019-02-02T23:39:08.679Z,75.67
2019-02-02T23:41:42.552Z,74.87
2019-02-02T23:44:12.433Z,73.90
2019-02-02T23:46:42.408Z,73.27
2019-02-02T23:49:24.718Z,75.00
2019-02-02T23:51:55.241Z,72.73
2019-02-02T23:54:25.397Z,70.27
2019-02-02T23:57:07.426Z,72.90
2019-02-02T23:59:39.399Z,73.83
